sensor_id;sensor_type;location;lat;lon;timestamp;pressure;altitude;pressure_sealevel;temperature;humidity
17785;BME280;9016;53.582;10.062;2022-12-16T00:01:16;101021.13;;;1.77;70.26
17785;BME280;9016;53.582;10.062;2022-12-16T00:03:48;101021.13;;;1.77;70.01
17785;BME280;9016;53.582;10.062;2022-12-16T00:06:17;101021.28;;;1.68;70.89
17785;BME280;9016;53.582;10.062;2022-12-16T00:08:46;101030.00;;;1.71;71.30
17785;BME280;9016;53.582;10.062;2022-12-16T00:11:14;101027.34;;;1.73;71.49
17785;BME280;9016;53.582;10.062;2022-12-16T00:13:42;101033.38;;;1.78;70.81
17785;BME280;9016;53.582;10.062;2022-12-16T00:16:11;101035.25;;;1.70;71.08
17785;BME280;9016;53.582;10.062;2022-12-16T00:18:40;101039.63;;;1.71;70.87
17785;BME280;9016;53.582;10.062;2022-12-16T00:21:10;101043.94;;;1.75;71.10
17785;BME280;9016;53.582;10.062;2022-12-16T00:23:38;101039.72;;;1.66;70.77
17785;BME280;9016;53.582;10.062;2022-12-16T00:26:07;101044.09;;;1.67;70.49
17785;BME280;9016;53.582;10.062;2022-12-16T00:28:36;101046.81;;;1.61;71.43
17785;BME280;9016;53.582;10.062;2022-12-16T00:31:04;101047.66;;;1.63;70.89
17785;BME280;9016;53.582;10.062;2022-12-16T00:33:32;101043.53;;;1.50;71.35
17785;BME280;9016;53.582;10.062;2022-12-16T00:36:01;101038.31;;;1.49;71.64
17785;BME280;9016;53.582;10.062;2022-12-16T00:38:30;101045.28;;;1.50;71.64
17785;BME280;9016;53.582;10.062;2022-12-16T00:40:58;101043.41;;;1.58;71.53
17785;BME280;9016;53.582;10.062;2022-12-16T00:43:26;101047.88;;;1.53;70.96
17785;BME280;9016;53.582;10.062;2022-12-16T00:45:54;101046.81;;;1.61;70.91
17785;BME280;9016;53.582;10.062;2022-12-16T00:48:22;101050.25;;;1.65;70.73
17785;BME280;9016;53.582;10.062;2022-12-16T00:50:53;101045.88;;;1.65;70.86
17785;BME280;9016;53.582;10.062;2022-12-16T00:53:23;101052.84;;;1.66;71.76
17785;BME280;9016;53.582;10.062;2022-12-16T00:56:00;101056.38;;;1.65;71.21
17785;BME280;9016;53.582;10.062;2022-12-16T00:58:28;101054.66;;;1.63;70.93
17785;BME280;9016;53.582;10.062;2022-12-16T01:00:56;101056.03;;;1.38;72.22
17785;BME280;9016;53.582;10.062;2022-12-16T01:03:24;101055.00;;;1.45;72.95
17785;BME280;9016;53.582;10.062;2022-12-16T01:05:52;101059.22;;;1.53;72.82
17785;BME280;9016;53.582;10.062;2022-12-16T01:08:21;101062.72;;;1.54;72.30
17785;BME280;9016;53.582;10.062;2022-12-16T01:10:49;101059.28;;;1.50;72.63
17785;BME280;9016;53.582;10.062;2022-12-16T01:13:20;101057.44;;;1.55;72.60
17785;BME280;9016;53.582;10.062;2022-12-16T01:15:48;101056.72;;;1.46;72.39
17785;BME280;9016;53.582;10.062;2022-12-16T01:18:16;101061.13;;;1.45;72.57
17785;BME280;9016;53.582;10.062;2022-12-16T01:20:44;101067.16;;;1.50;72.30
17785;BME280;9016;53.582;10.062;2022-12-16T01:23:12;101068.06;;;1.49;72.36
17785;BME280;9016;53.582;10.062;2022-12-16T01:25:40;101079.31;;;1.56;72.02
17785;BME280;9016;53.582;10.062;2022-12-16T01:28:08;101078.44;;;1.55;72.16
17785;BME280;9016;53.582;10.062;2022-12-16T01:30:37;101086.34;;;1.54;71.95
17785;BME280;9016;53.582;10.062;2022-12-16T01:33:05;101082.25;;;1.39;71.68
17785;BME280;9016;53.582;10.062;2022-12-16T01:35:33;101085.00;;;1.32;72.17
17785;BME280;9016;53.582;10.062;2022-12-16T01:38:21;101090.19;;;1.35;72.72
17785;BME280;9016;53.582;10.062;2022-12-16T01:40:49;101092.81;;;1.36;72.73
17785;BME280;9016;53.582;10.062;2022-12-16T01:43:23;101097.81;;;1.48;72.54
17785;BME280;9016;53.582;10.062;2022-12-16T01:45:53;101097.09;;;1.42;71.71
17785;BME280;9016;53.582;10.062;2022-12-16T01:48:33;101091.66;;;1.51;72.45
17785;BME280;9016;53.582;10.062;2022-12-16T01:51:05;101092.50;;;1.51;72.86
17785;BME280;9016;53.582;10.062;2022-12-16T01:53:35;101093.22;;;1.61;71.83
17785;BME280;9016;53.582;10.062;2022-12-16T01:56:05;101088.19;;;1.49;72.51
17785;BME280;9016;53.582;10.062;2022-12-16T01:58:35;101092.47;;;1.54;72.75
17785;BME280;9016;53.582;10.062;2022-12-16T02:01:05;101089.88;;;1.53;71.96
17785;BME280;9016;53.582;10.062;2022-12-16T02:03:35;101088.13;;;1.52;72.85
17785;BME280;9016;53.582;10.062;2022-12-16T02:06:05;101101.25;;;1.52;72.30
17785;BME280;9016;53.582;10.062;2022-12-16T02:08:34;101095.19;;;1.48;72.62
17785;BME280;9016;53.582;10.062;2022-12-16T02:11:28;101099.66;;;1.45;72.08
17785;BME280;9016;53.582;10.062;2022-12-16T02:14:18;101097.81;;;1.48;72.39
17785;BME280;9016;53.582;10.062;2022-12-16T02:16:54;101099.75;;;1.39;72.64
17785;BME280;9016;53.582;10.062;2022-12-16T02:19:48;101091.84;;;1.42;72.60
17785;BME280;9016;53.582;10.062;2022-12-16T02:22:27;101084.00;;;1.39;72.26
17785;BME280;9016;53.582;10.062;2022-12-16T02:25:22;101090.03;;;1.42;72.44
17785;BME280;9016;53.582;10.062;2022-12-16T02:28:01;101078.91;;;1.30;72.35
17785;BME280;9016;53.582;10.062;2022-12-16T02:30:57;101097.97;;;1.41;72.82
17785;BME280;9016;53.582;10.062;2022-12-16T02:33:36;101094.50;;;1.39;72.73
17785;BME280;9016;53.582;10.062;2022-12-16T02:36:13;101103.28;;;1.38;73.06
17785;BME280;9016;53.582;10.062;2022-12-16T02:38:48;101102.28;;;1.45;72.80
17785;BME280;9016;53.582;10.062;2022-12-16T02:41:26;101098.78;;;1.44;71.71
17785;BME280;9016;53.582;10.062;2022-12-16T02:43:59;101094.44;;;1.43;72.38
17785;BME280;9016;53.582;10.062;2022-12-16T02:46:32;101097.13;;;1.39;72.25
17785;BME280;9016;53.582;10.062;2022-12-16T02:49:05;101097.25;;;1.31;72.11
17785;BME280;9016;53.582;10.062;2022-12-16T02:51:35;101098.50;;;1.09;73.84
17785;BME280;9016;53.582;10.062;2022-12-16T02:54:06;101104.84;;;0.94;74.01
17785;BME280;9016;53.582;10.062;2022-12-16T02:56:44;101104.84;;;0.94;74.33
17785;BME280;9016;53.582;10.062;2022-12-16T02:59:18;101101.28;;;0.98;74.30
17785;BME280;9016;53.582;10.062;2022-12-16T03:01:56;101108.13;;;1.09;73.98
17785;BME280;9016;53.582;10.062;2022-12-16T03:04:30;101098.47;;;1.12;73.47
17785;BME280;9016;53.582;10.062;2022-12-16T03:07:03;101101.09;;;1.12;73.34
17785;BME280;9016;53.582;10.062;2022-12-16T03:09:36;101094.25;;;1.00;73.19
17785;BME280;9016;53.582;10.062;2022-12-16T03:12:08;101101.44;;;0.89;74.18
17785;BME280;9016;53.582;10.062;2022-12-16T03:14:41;101106.66;;;0.91;74.07
17785;BME280;9016;53.582;10.062;2022-12-16T03:17:12;101103.09;;;0.95;74.01
17785;BME280;9016;53.582;10.062;2022-12-16T03:19:42;101108.50;;;0.84;74.21
17785;BME280;9016;53.582;10.062;2022-12-16T03:22:16;101113.91;;;0.75;74.45
17785;BME280;9016;53.582;10.062;2022-12-16T03:24:47;101113.97;;;0.69;74.85
17785;BME280;9016;53.582;10.062;2022-12-16T03:27:17;101119.13;;;0.74;74.93
17785;BME280;9016;53.582;10.062;2022-12-16T03:29:52;101121.03;;;0.63;74.78
17785;BME280;9016;53.582;10.062;2022-12-16T03:32:28;101122.84;;;0.59;75.06
17785;BME280;9016;53.582;10.062;2022-12-16T03:35:01;101124.59;;;0.60;75.18
17785;BME280;9016;53.582;10.062;2022-12-16T03:37:33;101125.47;;;0.61;74.96
17785;BME280;9016;53.582;10.062;2022-12-16T03:40:05;101122.94;;;0.53;75.33
17785;BME280;9016;53.582;10.062;2022-12-16T03:42:35;101123.06;;;0.44;75.62
17785;BME280;9016;53.582;10.062;2022-12-16T03:45:05;101122.22;;;0.42;76.18
17785;BME280;9016;53.582;10.062;2022-12-16T03:47:36;101124.84;;;0.41;76.15
17785;BME280;9016;53.582;10.062;2022-12-16T03:50:05;101117.72;;;0.53;75.90
17785;BME280;9016;53.582;10.062;2022-12-16T03:52:33;101116.94;;;0.45;75.00
17785;BME280;9016;53.582;10.062;2022-12-16T03:55:01;101125.75;;;0.40;76.09
17785;BME280;9016;53.582;10.062;2022-12-16T03:57:29;101120.53;;;0.35;76.37
17785;BME280;9016;53.582;10.062;2022-12-16T03:59:57;101145.00;;;0.36;76.71
17785;BME280;9016;53.582;10.062;2022-12-16T04:02:25;101141.56;;;0.32;76.34
17785;BME280;9016;53.582;10.062;2022-12-16T04:04:55;101146.81;;;0.31;76.45
17785;BME280;9016;53.582;10.062;2022-12-16T04:07:22;101151.22;;;0.29;76.37
17785;BME280;9016;53.582;10.062;2022-12-16T04:09:51;101151.19;;;0.33;76.78
17785;BME280;9016;53.582;10.062;2022-12-16T04:12:20;101151.88;;;0.46;76.38
17785;BME280;9016;53.582;10.062;2022-12-16T04:15:06;101148.56;;;0.33;76.22
17785;BME280;9016;53.582;10.062;2022-12-16T04:17:52;101151.19;;;0.30;75.81
17785;BME280;9016;53.582;10.062;2022-12-16T04:20:42;101160.03;;;0.23;76.37
17785;BME280;9016;53.582;10.062;2022-12-16T04:23:30;101163.41;;;0.33;76.37
17785;BME280;9016;53.582;10.062;2022-12-16T04:26:18;101169.56;;;0.29;75.50
17785;BME280;9016;53.582;10.062;2022-12-16T04:28:46;101166.94;;;0.29;76.07
17785;BME280;9016;53.582;10.062;2022-12-16T04:31:14;101164.28;;;0.30;76.38
17785;BME280;9016;53.582;10.062;2022-12-16T04:33:42;101173.94;;;0.27;75.74
17785;BME280;9016;53.582;10.062;2022-12-16T04:36:29;101179.16;;;0.28;76.35
17785;BME280;9016;53.582;10.062;2022-12-16T04:39:14;101184.47;;;0.25;76.15
17785;BME280;9016;53.582;10.062;2022-12-16T04:42:00;101181.97;;;0.12;76.69
17785;BME280;9016;53.582;10.062;2022-12-16T04:44:45;101181.22;;;0.04;77.24
17785;BME280;9016;53.582;10.062;2022-12-16T04:47:30;101189.16;;;-0.07;77.84
17785;BME280;9016;53.582;10.062;2022-12-16T04:50:22;101189.19;;;-0.09;77.35
17785;BME280;9016;53.582;10.062;2022-12-16T04:53:09;101178.69;;;-0.09;78.01
17785;BME280;9016;53.582;10.062;2022-12-16T04:55:55;101194.34;;;-0.03;78.06
17785;BME280;9016;53.582;10.062;2022-12-16T04:58:41;101194.31;;;0.04;77.71
17785;BME280;9016;53.582;10.062;2022-12-16T05:01:26;101190.84;;;0.02;77.52
17785;BME280;9016;53.582;10.062;2022-12-16T05:04:11;101193.53;;;-0.09;77.67
17785;BME280;9016;53.582;10.062;2022-12-16T05:06:57;101193.66;;;-0.20;77.97
17785;BME280;9016;53.582;10.062;2022-12-16T05:09:44;101194.50;;;-0.18;77.75
17785;BME280;9016;53.582;10.062;2022-12-16T05:12:29;101189.34;;;-0.27;77.83
17785;BME280;9016;53.582;10.062;2022-12-16T05:15:15;101192.97;;;-0.41;77.69
17785;BME280;9016;53.582;10.062;2022-12-16T05:18:07;101193.84;;;-0.41;78.85
17785;BME280;9016;53.582;10.062;2022-12-16T05:20:52;101199.91;;;-0.39;79.18
17785;BME280;9016;53.582;10.062;2022-12-16T05:23:37;101205.16;;;-0.36;78.48
17785;BME280;9016;53.582;10.062;2022-12-16T05:26:24;101201.72;;;-0.45;79.14
17785;BME280;9016;53.582;10.062;2022-12-16T05:29:09;101206.06;;;-0.41;79.04
17785;BME280;9016;53.582;10.062;2022-12-16T05:31:57;101210.41;;;-0.40;78.54
17785;BME280;9016;53.582;10.062;2022-12-16T05:34:42;101214.78;;;-0.42;79.18
17785;BME280;9016;53.582;10.062;2022-12-16T05:37:28;101220.88;;;-0.37;79.06
17785;BME280;9016;53.582;10.062;2022-12-16T05:40:13;101227.88;;;-0.44;79.09
17785;BME280;9016;53.582;10.062;2022-12-16T05:43:00;101221.78;;;-0.44;78.24
17785;BME280;9016;53.582;10.062;2022-12-16T05:45:45;101230.44;;;-0.36;79.36
17785;BME280;9016;53.582;10.062;2022-12-16T05:48:31;101235.66;;;-0.33;78.13
17785;BME280;9016;53.582;10.062;2022-12-16T05:51:17;101231.41;;;-0.45;78.05
17785;BME280;9016;53.582;10.062;2022-12-16T05:54:03;101233.09;;;-0.39;78.81
17785;BME280;9016;53.582;10.062;2022-12-16T05:56:48;101233.88;;;-0.27;78.39
17785;BME280;9016;53.582;10.062;2022-12-16T05:59:35;101234.69;;;-0.23;77.39
17785;BME280;9016;53.582;10.062;2022-12-16T06:02:20;101237.25;;;-0.14;77.32
17785;BME280;9016;53.582;10.062;2022-12-16T06:05:06;101244.22;;;-0.13;76.78
17785;BME280;9016;53.582;10.062;2022-12-16T06:07:52;101245.94;;;-0.11;76.45
17785;BME280;9016;53.582;10.062;2022-12-16T06:10:37;101241.53;;;-0.04;76.69
17785;BME280;9016;53.582;10.062;2022-12-16T06:13:22;101248.50;;;-0.05;75.88
17785;BME280;9016;53.582;10.062;2022-12-16T06:16:09;101256.44;;;-0.14;75.97
17785;BME280;9016;53.582;10.062;2022-12-16T06:18:55;101266.94;;;-0.15;76.18
17785;BME280;9016;53.582;10.062;2022-12-16T06:21:40;101268.69;;;-0.16;75.99
17785;BME280;9016;53.582;10.062;2022-12-16T06:24:25;101269.53;;;-0.17;75.86
17785;BME280;9016;53.582;10.062;2022-12-16T06:27:11;101274.75;;;-0.12;75.97
17785;BME280;9016;53.582;10.062;2022-12-16T06:29:56;101276.50;;;-0.10;75.46
17785;BME280;9016;53.582;10.062;2022-12-16T06:32:43;101284.34;;;-0.08;76.00
17785;BME280;9016;53.582;10.062;2022-12-16T06:35:28;101283.50;;;-0.12;76.25
17785;BME280;9016;53.582;10.062;2022-12-16T06:38:13;101278.41;;;-0.31;75.49
17785;BME280;9016;53.582;10.062;2022-12-16T06:40:59;101287.09;;;-0.28;76.49
17785;BME280;9016;53.582;10.062;2022-12-16T06:43:44;101291.34;;;-0.15;76.51
17785;BME280;9016;53.582;10.062;2022-12-16T06:46:30;101303.53;;;-0.08;75.84
17785;BME280;9016;53.582;10.062;2022-12-16T06:49:17;101303.50;;;0.00;76.17
17785;BME280;9016;53.582;10.062;2022-12-16T06:52:02;101311.25;;;0.09;75.67
17785;BME280;9016;53.582;10.062;2022-12-16T06:54:48;101310.28;;;0.19;75.27
17785;BME280;9016;53.582;10.062;2022-12-16T06:57:33;101317.19;;;0.29;74.79
17785;BME280;9016;53.582;10.062;2022-12-16T07:00:18;101318.00;;;0.34;74.26
17785;BME280;9016;53.582;10.062;2022-12-16T07:03:06;101321.47;;;0.38;74.52
17785;BME280;9016;53.582;10.062;2022-12-16T07:05:53;101323.41;;;0.18;74.23
17785;BME280;9016;53.582;10.062;2022-12-16T07:08:41;101320.81;;;0.15;74.73
17785;BME280;9016;53.582;10.062;2022-12-16T07:11:27;101315.66;;;0.03;75.41
17785;BME280;9016;53.582;10.062;2022-12-16T07:14:12;101331.31;;;0.12;74.97
17785;BME280;9016;53.582;10.062;2022-12-16T07:16:57;101333.97;;;0.04;75.57
17785;BME280;9016;53.582;10.062;2022-12-16T07:19:43;101335.78;;;-0.01;74.80
17785;BME280;9016;53.582;10.062;2022-12-16T07:22:30;101342.84;;;-0.11;74.90
17785;BME280;9016;53.582;10.062;2022-12-16T07:25:28;101351.72;;;-0.30;76.45
17785;BME280;9016;53.582;10.062;2022-12-16T07:28:14;101356.88;;;-0.21;77.04
17785;BME280;9016;53.582;10.062;2022-12-16T07:31:00;101361.22;;;-0.20;76.77
17785;BME280;9016;53.582;10.062;2022-12-16T07:33:47;101365.59;;;-0.20;75.85
17785;BME280;9016;53.582;10.062;2022-12-16T07:36:33;101377.00;;;-0.24;76.39
17785;BME280;9016;53.582;10.062;2022-12-16T07:39:23;101370.88;;;-0.25;76.63
17785;BME280;9016;53.582;10.062;2022-12-16T07:42:08;101380.38;;;-0.10;76.65
17785;BME280;9016;53.582;10.062;2022-12-16T07:44:53;101385.56;;;-0.03;76.66
17785;BME280;9016;53.582;10.062;2022-12-16T07:47:45;101396.97;;;-0.13;76.08
17785;BME280;9016;53.582;10.062;2022-12-16T07:50:31;101392.50;;;0.05;77.08
17785;BME280;9016;53.582;10.062;2022-12-16T07:53:16;101402.16;;;-0.01;75.13
17785;BME280;9016;53.582;10.062;2022-12-16T07:56:04;101399.47;;;0.04;76.04
17785;BME280;9016;53.582;10.062;2022-12-16T07:58:58;101398.59;;;0.11;75.87
17785;BME280;9016;53.582;10.062;2022-12-16T08:01:43;101409.09;;;0.05;75.46
17785;BME280;9016;53.582;10.062;2022-12-16T08:04:29;101411.72;;;0.04;75.67
17785;BME280;9016;53.582;10.062;2022-12-16T08:07:14;101412.56;;;0.09;75.97
17785;BME280;9016;53.582;10.062;2022-12-16T08:10:00;101423.88;;;0.14;76.16
17785;BME280;9016;53.582;10.062;2022-12-16T08:12:47;101418.66;;;0.12;75.64
17785;BME280;9016;53.582;10.062;2022-12-16T08:15:32;101424.72;;;0.16;76.14
17785;BME280;9016;53.582;10.062;2022-12-16T08:18:18;101424.59;;;0.34;76.24
17785;BME280;9016;53.582;10.062;2022-12-16T08:21:04;101428.88;;;0.44;75.80
17785;BME280;9016;53.582;10.062;2022-12-16T08:23:49;101427.94;;;0.55;75.63
17785;BME280;9016;53.582;10.062;2022-12-16T08:26:34;101441.97;;;0.45;75.32
17785;BME280;9016;53.582;10.062;2022-12-16T08:29:22;101449.75;;;0.59;75.32
17785;BME280;9016;53.582;10.062;2022-12-16T08:32:11;101457.50;;;0.69;75.40
17785;BME280;9016;53.582;10.062;2022-12-16T08:34:56;101455.66;;;0.80;74.55
17785;BME280;9016;53.582;10.062;2022-12-16T08:37:41;101470.41;;;0.93;73.57
17785;BME280;9016;53.582;10.062;2022-12-16T08:40:26;101471.25;;;0.95;74.50
17785;BME280;9016;53.582;10.062;2022-12-16T08:43:12;101476.53;;;0.91;73.19
17785;BME280;9016;53.582;10.062;2022-12-16T08:46:00;101478.28;;;0.89;74.50
17785;BME280;9016;53.582;10.062;2022-12-16T08:48:45;101482.75;;;0.79;74.49
17785;BME280;9016;53.582;10.062;2022-12-16T08:51:31;101480.00;;;0.93;74.71
17785;BME280;9016;53.582;10.062;2022-12-16T08:54:16;101491.25;;;1.09;74.60
17785;BME280;9016;53.582;10.062;2022-12-16T08:57:01;101494.75;;;1.08;74.89
17785;BME280;9016;53.582;10.062;2022-12-16T08:59:47;101489.50;;;1.06;74.02
17785;BME280;9016;53.582;10.062;2022-12-16T09:02:34;101498.34;;;0.97;74.83
17785;BME280;9016;53.582;10.062;2022-12-16T09:05:21;101493.03;;;1.05;74.42
17785;BME280;9016;53.582;10.062;2022-12-16T09:08:06;101505.13;;;1.20;74.38
17785;BME280;9016;53.582;10.062;2022-12-16T09:10:52;101504.34;;;1.12;74.34
17785;BME280;9016;53.582;10.062;2022-12-16T09:13:37;101512.13;;;1.21;73.68
17785;BME280;9016;53.582;10.062;2022-12-16T09:16:23;101512.91;;;1.30;74.27
17785;BME280;9016;53.582;10.062;2022-12-16T09:19:10;101509.47;;;1.22;73.89
17785;BME280;9016;53.582;10.062;2022-12-16T09:21:56;101514.69;;;1.27;73.95
17785;BME280;9016;53.582;10.062;2022-12-16T09:24:41;101519.88;;;1.31;73.76
17785;BME280;9016;53.582;10.062;2022-12-16T09:27:26;101524.97;;;1.49;73.64
17785;BME280;9016;53.582;10.062;2022-12-16T09:30:26;101528.31;;;1.59;72.68
17785;BME280;9016;53.582;10.062;2022-12-16T09:33:14;101534.63;;;1.44;73.22
17785;BME280;9016;53.582;10.062;2022-12-16T09:36:01;101534.59;;;1.46;73.50
17785;BME280;9016;53.582;10.062;2022-12-16T09:38:46;101542.47;;;1.47;72.46
17785;BME280;9016;53.582;10.062;2022-12-16T09:41:40;101539.09;;;1.36;72.37
17785;BME280;9016;53.582;10.062;2022-12-16T09:44:35;101541.72;;;1.35;73.88
17785;BME280;9016;53.582;10.062;2022-12-16T09:47:29;101540.94;;;1.25;73.81
17785;BME280;9016;53.582;10.062;2022-12-16T09:50:22;101538.22;;;1.36;74.11
17785;BME280;9016;53.582;10.062;2022-12-16T09:53:12;101552.97;;;1.49;72.75
17785;BME280;9016;53.582;10.062;2022-12-16T09:56:01;101558.22;;;1.47;72.49
17785;BME280;9016;53.582;10.062;2022-12-16T09:58:51;101551.38;;;1.34;73.18
17785;BME280;9016;53.582;10.062;2022-12-16T10:01:37;101557.56;;;1.24;74.14
17785;BME280;9016;53.582;10.062;2022-12-16T10:04:24;101559.31;;;1.25;74.96
17785;BME280;9016;53.582;10.062;2022-12-16T10:07:15;101557.44;;;1.38;74.49
17785;BME280;9016;53.582;10.062;2022-12-16T10:10:14;101553.91;;;1.40;75.00
17785;BME280;9016;53.582;10.062;2022-12-16T10:13:08;101553.91;;;1.40;73.67
17785;BME280;9016;53.582;10.062;2022-12-16T10:16:05;101556.38;;;1.58;74.20
17785;BME280;9016;53.582;10.062;2022-12-16T10:19:00;101558.91;;;1.66;72.31
17785;BME280;9016;53.582;10.062;2022-12-16T10:21:54;101563.34;;;1.59;72.63
17785;BME280;9016;53.582;10.062;2022-12-16T10:24:48;101560.69;;;1.64;72.30
17785;BME280;9016;53.582;10.062;2022-12-16T10:27:43;101562.56;;;1.53;71.71
17785;BME280;9016;53.582;10.062;2022-12-16T10:30:30;101566.88;;;1.58;72.47
17785;BME280;9016;53.582;10.062;2022-12-16T10:33:17;101572.16;;;1.54;72.01
17785;BME280;9016;53.582;10.062;2022-12-16T10:36:04;101567.72;;;1.59;71.72
17785;BME280;9016;53.582;10.062;2022-12-16T10:39:00;101565.19;;;1.50;73.22
17785;BME280;9016;53.582;10.062;2022-12-16T10:42:01;101565.13;;;1.57;72.63
17785;BME280;9016;53.582;10.062;2022-12-16T10:44:54;101568.56;;;1.61;72.80
17785;BME280;9016;53.582;10.062;2022-12-16T10:47:51;101571.22;;;1.59;72.69
17785;BME280;9016;53.582;10.062;2022-12-16T10:50:36;101566.78;;;1.66;72.35
17785;BME280;9016;53.582;10.062;2022-12-16T10:53:24;101568.53;;;1.67;72.55
17785;BME280;9016;53.582;10.062;2022-12-16T10:56:19;101564.97;;;1.71;71.78
17785;BME280;9016;53.582;10.062;2022-12-16T10:59:08;101571.09;;;1.70;71.76
17785;BME280;9016;53.582;10.062;2022-12-16T11:01:57;101557.94;;;1.74;72.70
17785;BME280;9016;53.582;10.062;2022-12-16T11:04:44;101566.56;;;1.85;72.46
17785;BME280;9016;53.582;10.062;2022-12-16T11:07:35;101568.38;;;1.80;72.28
17785;BME280;9016;53.582;10.062;2022-12-16T11:10:28;101568.47;;;1.73;72.83
17785;BME280;9016;53.582;10.062;2022-12-16T11:13:21;101564.97;;;1.72;72.04
17785;BME280;9016;53.582;10.062;2022-12-16T11:16:16;101564.00;;;1.79;72.71
17785;BME280;9016;53.582;10.062;2022-12-16T11:19:03;101563.06;;;1.83;72.49
17785;BME280;9016;53.582;10.062;2022-12-16T11:21:49;101567.50;;;1.80;72.35
17785;BME280;9016;53.582;10.062;2022-12-16T11:24:35;101569.19;;;1.85;72.19
17785;BME280;9016;53.582;10.062;2022-12-16T11:27:22;101566.75;;;1.69;72.82
17785;BME280;9016;53.582;10.062;2022-12-16T11:30:17;101559.66;;;1.75;71.83
17785;BME280;9016;53.582;10.062;2022-12-16T11:33:10;101572.78;;;1.78;72.28
17785;BME280;9016;53.582;10.062;2022-12-16T11:36:07;101571.03;;;1.76;72.08
17785;BME280;9016;53.582;10.062;2022-12-16T11:38:54;101575.44;;;1.74;72.41
17785;BME280;9016;53.582;10.062;2022-12-16T11:41:41;101576.25;;;1.80;72.20
17785;BME280;9016;53.582;10.062;2022-12-16T11:44:30;101578.91;;;1.77;72.15
17785;BME280;9016;53.582;10.062;2022-12-16T11:47:22;101573.53;;;1.86;72.42
17785;BME280;9016;53.582;10.062;2022-12-16T11:50:16;101577.03;;;1.88;72.31
17785;BME280;9016;53.582;10.062;2022-12-16T11:53:08;101575.97;;;2.03;72.68
17785;BME280;9016;53.582;10.062;2022-12-16T11:56:01;101570.72;;;2.03;71.62
17785;BME280;9016;53.582;10.062;2022-12-16T11:58:48;101568.91;;;2.10;71.55
17785;BME280;9016;53.582;10.062;2022-12-16T12:01:39;101575.13;;;2.03;71.88
17785;BME280;9016;53.582;10.062;2022-12-16T12:04:29;101578.59;;;2.05;71.01
17785;BME280;9016;53.582;10.062;2022-12-16T12:07:23;101582.88;;;2.13;70.53
17785;BME280;9016;53.582;10.062;2022-12-16T12:10:29;101584.75;;;2.02;70.14
17785;BME280;9016;53.582;10.062;2022-12-16T12:13:32;101582.06;;;2.05;71.57
17785;BME280;9016;53.582;10.062;2022-12-16T12:16:27;101581.91;;;2.19;71.02
17785;BME280;9016;53.582;10.062;2022-12-16T12:19:19;101588.94;;;2.18;70.85
17785;BME280;9016;53.582;10.062;2022-12-16T12:22:24;101597.56;;;2.28;70.83
17785;BME280;9016;53.582;10.062;2022-12-16T12:25:23;101597.41;;;2.41;70.29
17785;BME280;9016;53.582;10.062;2022-12-16T12:28:20;101611.22;;;2.55;70.37
17785;BME280;9016;53.582;10.062;2022-12-16T12:31:23;101596.28;;;2.57;70.28
17785;BME280;9016;53.582;10.062;2022-12-16T12:34:22;101609.38;;;2.63;68.69
17785;BME280;9016;53.582;10.062;2022-12-16T12:37:20;101604.53;;;2.32;69.20
17785;BME280;9016;53.582;10.062;2022-12-16T12:40:26;101611.75;;;2.18;70.23
17785;BME280;9016;53.582;10.062;2022-12-16T12:43:25;101616.22;;;2.08;72.02
17785;BME280;9016;53.582;10.062;2022-12-16T12:46:21;101609.94;;;2.21;72.11
17785;BME280;9016;53.582;10.062;2022-12-16T12:49:17;101615.69;;;2.50;71.50
17785;BME280;9016;53.582;10.062;2022-12-16T12:52:13;101617.38;;;2.53;70.50
17785;BME280;9016;53.582;10.062;2022-12-16T12:55:06;101616.25;;;2.72;70.16
17785;BME280;9016;53.582;10.062;2022-12-16T12:57:57;101617.00;;;2.81;69.73
17785;BME280;9016;53.582;10.062;2022-12-16T13:00:48;101624.88;;;2.83;69.47
17785;BME280;9016;53.582;10.062;2022-12-16T13:03:38;101626.66;;;2.81;69.20
17785;BME280;9016;53.582;10.062;2022-12-16T13:06:27;101633.81;;;2.73;68.65
17785;BME280;9016;53.582;10.062;2022-12-16T13:09:25;101636.53;;;2.65;69.56
17785;BME280;9016;53.582;10.062;2022-12-16T13:12:21;101634.63;;;2.75;69.93
17785;BME280;9016;53.582;10.062;2022-12-16T13:15:16;101640.00;;;2.67;68.68
17785;BME280;9016;53.582;10.062;2022-12-16T13:18:24;101638.16;;;2.74;69.08
17785;BME280;9016;53.582;10.062;2022-12-16T13:21:41;101638.16;;;2.74;69.04
17785;BME280;9016;53.582;10.062;2022-12-16T13:24:44;101648.06;;;2.55;68.61
17785;BME280;9016;53.582;10.062;2022-12-16T13:27:46;101650.03;;;2.38;69.99
17785;BME280;9016;53.582;10.062;2022-12-16T13:30:34;101652.75;;;2.29;71.28
17785;BME280;9016;53.582;10.062;2022-12-16T13:33:22;101657.75;;;2.52;70.87
17785;BME280;9016;53.582;10.062;2022-12-16T13:36:10;101651.09;;;2.22;70.06
17785;BME280;9016;53.582;10.062;2022-12-16T13:38:59;101651.97;;;2.23;71.40
17785;BME280;9016;53.582;10.062;2022-12-16T13:41:49;101656.22;;;2.33;71.18
17785;BME280;9016;53.582;10.062;2022-12-16T13:44:56;101658.09;;;2.25;70.07
17785;BME280;9016;53.582;10.062;2022-12-16T13:48:23;101657.31;;;2.17;71.19
17785;BME280;9016;53.582;10.062;2022-12-16T13:54:42;101666.88;;;2.22;71.75
17785;BME280;9016;53.582;10.062;2022-12-16T13:57:35;101665.94;;;2.28;71.41
17785;BME280;9016;53.582;10.062;2022-12-16T14:00:24;101670.44;;;2.18;70.88
17785;BME280;9016;53.582;10.062;2022-12-16T14:03:15;101671.34;;;2.16;70.87
17785;BME280;9016;53.582;10.062;2022-12-16T14:06:07;101671.50;;;2.02;71.89
17785;BME280;9016;53.582;10.062;2022-12-16T14:08:55;101674.97;;;2.04;72.01
17785;BME280;9016;53.582;10.062;2022-12-16T14:11:47;101681.16;;;2.00;71.83
17785;BME280;9016;53.582;10.062;2022-12-16T14:14:39;101679.34;;;2.03;72.01
17785;BME280;9016;53.582;10.062;2022-12-16T14:17:32;101681.91;;;2.11;72.47
17785;BME280;9016;53.582;10.062;2022-12-16T14:20:24;101685.38;;;2.15;71.39
17785;BME280;9016;53.582;10.062;2022-12-16T14:23:24;101689.72;;;2.19;71.70
17785;BME280;9016;53.582;10.062;2022-12-16T14:26:22;101685.31;;;2.19;71.56
17785;BME280;9016;53.582;10.062;2022-12-16T14:29:16;101691.56;;;2.09;72.21